sensor_id;sensor_type;location;lat;lon;timestamp;pressure;altitude;pressure_sealevel;temperature;humidity
23261;BME280;11799;47.740;-3.390;2023-04-25T00:01:15;101389.88;;;8.71;100.00
23261;BME280;11799;47.740;-3.390;2023-04-25T00:03:41;101385.66;;;8.69;100.00
23261;BME280;11799;47.740;-3.390;2023-04-25T00:06:06;101383.84;;;8.69;100.00
23261;BME280;11799;47.740;-3.390;2023-04-25T00:08:33;101388.19;;;8.70;100.00
23261;BME280;11799;47.740;-3.390;2023-04-25T00:10:59;101389.22;;;8.68;100.00
23261;BME280;11799;47.740;-3.390;2023-04-25T00:13:25;101383.22;;;8.66;100.00
23261;BME280;11799;47.740;-3.390;2023-04-25T00:15:52;101379.75;;;8.65;100.00
23261;BME280;11799;47.740;-3.390;2023-04-25T00:18:21;101383.41;;;8.63;100.00
23261;BME280;11799;47.740;-3.390;2023-04-25T00:20:47;101380.78;;;8.63;100.00
23261;BME280;11799;47.740;-3.390;2023-04-25T00:23:14;101378.34;;;8.59;100.00
23261;BME280;11799;47.740;-3.390;2023-04-25T00:25:47;101388.88;;;8.59;100.00
23261;BME280;11799;47.740;-3.390;2023-04-25T00:28:13;101382.19;;;8.54;100.00
23261;BME280;11799;47.740;-3.390;2023-04-25T00:30:40;101383.78;;;8.56;100.00
23261;BME280;11799;47.740;-3.390;2023-04-25T00:33:06;101377.94;;;8.51;100.00
23261;BME280;11799;47.740;-3.390;2023-04-25T00:35:32;101377.94;;;8.51;100.00
23261;BME280;11799;47.740;-3.390;2023-04-25T00:37:57;101379.16;;;8.46;100.00
23261;BME280;11799;47.740;-3.390;2023-04-25T00:40:23;101369.56;;;8.45;100.00
23261;BME280;11799;47.740;-3.390;2023-04-25T00:42:49;101367.69;;;8.47;100.00
23261;BME280;11799;47.740;-3.390;2023-04-25T00:45:15;101366.28;;;8.41;100.00
23261;BME280;11799;47.740;-3.390;2023-04-25T00:47:41;101380.19;;;8.43;100.00
23261;BME280;11799;47.740;-3.390;2023-04-25T00:50:08;101372.97;;;8.47;100.00
23261;BME280;11799;47.740;-3.390;2023-04-25T00:52:34;101364.22;;;8.46;100.00
23261;BME280;11799;47.740;-3.390;2023-04-25T00:55:00;101371.75;;;8.52;100.00
23261;BME280;11799;47.740;-3.390;2023-04-25T00:57:26;101375.41;;;8.50;100.00
23261;BME280;11799;47.740;-3.390;2023-04-25T00:59:52;101377.94;;;8.51;100.00
23261;BME280;11799;47.740;-3.390;2023-04-25T01:02:19;101376.44;;;8.47;100.00
23261;BME280;11799;47.740;-3.390;2023-04-25T01:04:46;101367.69;;;8.47;100.00
23261;BME280;11799;47.740;-3.390;2023-04-25T01:07:12;101372.03;;;8.48;100.00
23261;BME280;11799;47.740;-3.390;2023-04-25T01:09:39;101369.75;;;8.42;100.00
23261;BME280;11799;47.740;-3.390;2023-04-25T01:12:05;101374.94;;;8.43;100.00
23261;BME280;11799;47.740;-3.390;2023-04-25T01:14:31;101367.97;;;8.42;100.00
23261;BME280;11799;47.740;-3.390;2023-04-25T01:16:57;101375.03;;;8.42;100.00
23261;BME280;11799;47.740;-3.390;2023-04-25T01:19:23;101366.63;;;8.35;100.00
23261;BME280;11799;47.740;-3.390;2023-04-25T01:21:49;101371.47;;;8.27;100.00
23261;BME280;11799;47.740;-3.390;2023-04-25T01:24:15;101374.97;;;8.27;100.00
23261;BME280;11799;47.740;-3.390;2023-04-25T01:26:42;101375.81;;;8.28;100.00
23261;BME280;11799;47.740;-3.390;2023-04-25T01:29:20;101378.53;;;8.26;100.00
23261;BME280;11799;47.740;-3.390;2023-04-25T01:31:46;101367.06;;;8.27;100.00
23261;BME280;11799;47.740;-3.390;2023-04-25T01:34:13;101369.69;;;8.27;100.00
23261;BME280;11799;47.740;-3.390;2023-04-25T01:36:39;101369.97;;;8.23;100.00
23261;BME280;11799;47.740;-3.390;2023-04-25T01:39:05;101369.28;;;8.19;100.00
23261;BME280;11799;47.740;-3.390;2023-04-25T01:41:31;101370.22;;;8.18;100.00
23261;BME280;11799;47.740;-3.390;2023-04-25T01:43:57;101374.66;;;8.18;100.00
23261;BME280;11799;47.740;-3.390;2023-04-25T01:46:23;101370.41;;;8.15;100.00
23261;BME280;11799;47.740;-3.390;2023-04-25T01:48:49;101376.63;;;8.14;100.00
23261;BME280;11799;47.740;-3.390;2023-04-25T01:51:15;101377.63;;;8.12;100.00
23261;BME280;11799;47.740;-3.390;2023-04-25T01:53:42;101377.94;;;8.07;100.00
23261;BME280;11799;47.740;-3.390;2023-04-25T01:56:08;101380.56;;;8.07;100.00
23261;BME280;11799;47.740;-3.390;2023-04-25T01:58:34;101378.03;;;8.06;100.00
23261;BME280;11799;47.740;-3.390;2023-04-25T02:01:05;101382.63;;;8.02;100.00
23261;BME280;11799;47.740;-3.390;2023-04-25T02:03:38;101387.13;;;8.00;100.00
23261;BME280;11799;47.740;-3.390;2023-04-25T02:06:09;101377.53;;;7.99;100.00
23261;BME280;11799;47.740;-3.390;2023-04-25T02:08:38;101380.59;;;7.91;100.00
23261;BME280;11799;47.740;-3.390;2023-04-25T02:11:04;101378.72;;;7.93;100.00
23261;BME280;11799;47.740;-3.390;2023-04-25T02:13:36;101371.69;;;7.94;100.00
23261;BME280;11799;47.740;-3.390;2023-04-25T02:16:12;101369.25;;;7.91;100.00
23261;BME280;11799;47.740;-3.390;2023-04-25T02:18:38;101368.31;;;7.92;100.00
23261;BME280;11799;47.740;-3.390;2023-04-25T02:21:05;101376.94;;;7.94;100.00
23261;BME280;11799;47.740;-3.390;2023-04-25T02:23:31;101372.63;;;7.93;100.00
23261;BME280;11799;47.740;-3.390;2023-04-25T02:25:59;101365.59;;;7.93;100.00
23261;BME280;11799;47.740;-3.390;2023-04-25T02:28:24;101364.81;;;7.91;100.00
23261;BME280;11799;47.740;-3.390;2023-04-25T02:30:51;101356.19;;;7.89;100.00
23261;BME280;11799;47.740;-3.390;2023-04-25T02:33:17;101355.25;;;7.90;100.00
23261;BME280;11799;47.740;-3.390;2023-04-25T02:35:43;101351.84;;;7.88;100.00
23261;BME280;11799;47.740;-3.390;2023-04-25T02:38:08;101359.84;;;7.87;100.00
23261;BME280;11799;47.740;-3.390;2023-04-25T02:40:34;101356.78;;;7.79;100.00
23261;BME280;11799;47.740;-3.390;2023-04-25T02:42:59;101358.75;;;7.75;100.00
23261;BME280;11799;47.740;-3.390;2023-04-25T02:45:25;101357.91;;;7.75;100.00
23261;BME280;11799;47.740;-3.390;2023-04-25T02:47:51;101366.72;;;7.74;100.00
23261;BME280;11799;47.740;-3.390;2023-04-25T02:50:18;101357.81;;;7.76;100.00
23261;BME280;11799;47.740;-3.390;2023-04-25T02:52:43;101361.38;;;7.75;100.00
23261;BME280;11799;47.740;-3.390;2023-04-25T02:55:14;101374.69;;;7.72;100.00
23261;BME280;11799;47.740;-3.390;2023-04-25T02:57:40;101368.78;;;7.69;100.00
23261;BME280;11799;47.740;-3.390;2023-04-25T03:00:08;101373.84;;;7.72;100.00
23261;BME280;11799;47.740;-3.390;2023-04-25T03:02:34;101378.53;;;7.67;100.00
23261;BME280;11799;47.740;-3.390;2023-04-25T03:04:59;101380.66;;;7.60;100.00
23261;BME280;11799;47.740;-3.390;2023-04-25T03:07:26;101376.25;;;7.60;100.00
23261;BME280;11799;47.740;-3.390;2023-04-25T03:09:51;101376.50;;;7.56;100.00
23261;BME280;11799;47.740;-3.390;2023-04-25T03:12:17;101372.34;;;7.52;100.00
23261;BME280;11799;47.740;-3.390;2023-04-25T03:14:42;101380.47;;;7.63;100.00
23261;BME280;11799;47.740;-3.390;2023-04-25T03:17:08;101380.66;;;7.60;100.00
23261;BME280;11799;47.740;-3.390;2023-04-25T03:19:34;101381.59;;;7.59;100.00
23261;BME280;11799;47.740;-3.390;2023-04-25T03:22:00;101386.94;;;7.57;100.00
23261;BME280;11799;47.740;-3.390;2023-04-25T03:24:25;101383.28;;;7.60;100.00
23261;BME280;11799;47.740;-3.390;2023-04-25T03:26:52;101390.22;;;7.61;100.00
23261;BME280;11799;47.740;-3.390;2023-04-25T03:29:17;101394.72;;;7.59;100.00
23261;BME280;11799;47.740;-3.390;2023-04-25T03:31:43;101394.81;;;7.57;100.00
23261;BME280;11799;47.740;-3.390;2023-04-25T03:34:09;101396.69;;;7.55;100.00
23261;BME280;11799;47.740;-3.390;2023-04-25T03:36:35;101397.69;;;7.53;100.00
23261;BME280;11799;47.740;-3.390;2023-04-25T03:39:01;101397.59;;;7.54;100.00
23261;BME280;11799;47.740;-3.390;2023-04-25T03:41:28;101389.16;;;7.49;100.00
23261;BME280;11799;47.740;-3.390;2023-04-25T03:44:00;101402.38;;;7.48;100.00
23261;BME280;11799;47.740;-3.390;2023-04-25T03:46:26;101405.78;;;7.50;100.00
23261;BME280;11799;47.740;-3.390;2023-04-25T03:48:51;101406.78;;;7.47;100.00
23261;BME280;11799;47.740;-3.390;2023-04-25T03:51:21;101405.28;;;7.43;100.00
23261;BME280;11799;47.740;-3.390;2023-04-25T03:53:47;101398.16;;;7.45;100.00
23261;BME280;11799;47.740;-3.390;2023-04-25T03:56:19;101394.69;;;7.45;100.00
23261;BME280;11799;47.740;-3.390;2023-04-25T03:58:49;101398.06;;;7.47;100.00
23261;BME280;11799;47.740;-3.390;2023-04-25T04:01:17;101393.66;;;7.47;100.00
23261;BME280;11799;47.740;-3.390;2023-04-25T04:03:43;101391.88;;;7.48;100.00
23261;BME280;11799;47.740;-3.390;2023-04-25T04:06:09;101390.94;;;7.49;100.00
23261;BME280;11799;47.740;-3.390;2023-04-25T04:08:39;101394.41;;;7.49;100.00
23261;BME280;11799;47.740;-3.390;2023-04-25T04:11:04;101386.53;;;7.49;100.00
23261;BME280;11799;47.740;-3.390;2023-04-25T04:13:31;101372.34;;;7.52;100.00
23261;BME280;11799;47.740;-3.390;2023-04-25T04:15:57;101381.38;;;7.48;100.00
23261;BME280;11799;47.740;-3.390;2023-04-25T04:18:23;101374.31;;;7.48;100.00
23261;BME280;11799;47.740;-3.390;2023-04-25T04:20:49;101369.31;;;7.44;100.00
23261;BME280;11799;47.740;-3.390;2023-04-25T04:23:16;101365.44;;;7.51;100.00
23261;BME280;11799;47.740;-3.390;2023-04-25T04:25:41;101379.03;;;7.57;100.00
23261;BME280;11799;47.740;-3.390;2023-04-25T04:28:20;101376.41;;;7.57;100.00
23261;BME280;11799;47.740;-3.390;2023-04-25T04:31:20;101379.22;;;7.54;100.00
23261;BME280;11799;47.740;-3.390;2023-04-25T04:33:47;101393.03;;;7.58;100.00
23261;BME280;11799;47.740;-3.390;2023-04-25T04:36:13;101381.19;;;7.51;100.00
23261;BME280;11799;47.740;-3.390;2023-04-25T04:38:39;101395.75;;;7.56;100.00
23261;BME280;11799;47.740;-3.390;2023-04-25T04:41:16;101393.72;;;7.61;100.00
23261;BME280;11799;47.740;-3.390;2023-04-25T04:43:52;101392.78;;;7.62;100.00
23261;BME280;11799;47.740;-3.390;2023-04-25T04:46:41;101396.34;;;7.61;100.00
23261;BME280;11799;47.740;-3.390;2023-04-25T04:49:45;101405.06;;;7.62;100.00
23261;BME280;11799;47.740;-3.390;2023-04-25T04:52:30;101411.09;;;7.64;100.00
23261;BME280;11799;47.740;-3.390;2023-04-25T04:55:21;101413.53;;;7.67;100.00
23261;BME280;11799;47.740;-3.390;2023-04-25T04:58:16;101412.69;;;7.67;100.00
23261;BME280;11799;47.740;-3.390;2023-04-25T05:01:01;101413.38;;;7.70;100.00
23261;BME280;11799;47.740;-3.390;2023-04-25T05:03:32;101405.50;;;7.70;100.00
23261;BME280;11799;47.740;-3.390;2023-04-25T05:06:10;101411.50;;;7.72;100.00
23261;BME280;11799;47.740;-3.390;2023-04-25T05:09:10;101413.19;;;7.73;100.00
23261;BME280;11799;47.740;-3.390;2023-04-25T05:12:02;101414.91;;;7.74;100.00
23261;BME280;11799;47.740;-3.390;2023-04-25T05:14:46;101409.81;;;7.71;100.00
23261;BME280;11799;47.740;-3.390;2023-04-25T05:17:36;101418.53;;;7.72;100.00
23261;BME280;11799;47.740;-3.390;2023-04-25T05:20:20;101405.22;;;7.75;100.00
23261;BME280;11799;47.740;-3.390;2023-04-25T05:22:49;101404.28;;;7.76;100.00
23261;BME280;11799;47.740;-3.390;2023-04-25T05:25:34;101390.38;;;7.74;100.00
23261;BME280;11799;47.740;-3.390;2023-04-25T05:28:13;101400.47;;;7.81;100.00
23261;BME280;11799;47.740;-3.390;2023-04-25T05:30:57;101387.31;;;7.81;100.00
23261;BME280;11799;47.740;-3.390;2023-04-25T05:33:37;101390.88;;;7.80;100.00
23261;BME280;11799;47.740;-3.390;2023-04-25T05:36:03;101388.34;;;7.79;100.00
23261;BME280;11799;47.740;-3.390;2023-04-25T05:38:28;101389.09;;;7.81;100.00
23261;BME280;11799;47.740;-3.390;2023-04-25T05:41:18;101406.59;;;7.82;100.00
23261;BME280;11799;47.740;-3.390;2023-04-25T05:43:53;101416.25;;;7.81;100.00
23261;BME280;11799;47.740;-3.390;2023-04-25T05:46:30;101421.34;;;7.84;100.00
23261;BME280;11799;47.740;-3.390;2023-04-25T05:49:21;101423.88;;;7.86;100.00
23261;BME280;11799;47.740;-3.390;2023-04-25T05:52:02;101424.72;;;7.86;100.00
23261;BME280;11799;47.740;-3.390;2023-04-25T05:54:33;101432.34;;;7.91;100.00
23261;BME280;11799;47.740;-3.390;2023-04-25T05:56:59;101429.63;;;7.92;100.00
23261;BME280;11799;47.740;-3.390;2023-04-25T05:59:24;101424.22;;;7.95;100.00
23261;BME280;11799;47.740;-3.390;2023-04-25T06:01:50;101425.91;;;7.97;100.00
23261;BME280;11799;47.740;-3.390;2023-04-25T06:04:17;101433.78;;;7.97;100.00
23261;BME280;11799;47.740;-3.390;2023-04-25T06:06:43;101438.13;;;7.98;100.00
23261;BME280;11799;47.740;-3.390;2023-04-25T06:09:08;101434.47;;;8.00;100.00
23261;BME280;11799;47.740;-3.390;2023-04-25T06:11:34;101434.38;;;8.02;100.00
23261;BME280;11799;47.740;-3.390;2023-04-25T06:14:00;101428.09;;;8.04;100.00
23261;BME280;11799;47.740;-3.390;2023-04-25T06:16:26;101436.75;;;8.06;100.00
23261;BME280;11799;47.740;-3.390;2023-04-25T06:18:52;101434.88;;;8.08;100.00
23261;BME280;11799;47.740;-3.390;2023-04-25T06:21:17;101432.13;;;8.10;100.00
23261;BME280;11799;47.740;-3.390;2023-04-25T06:23:43;101438.81;;;8.15;100.00
23261;BME280;11799;47.740;-3.390;2023-04-25T06:26:11;101437.97;;;8.15;100.00
23261;BME280;11799;47.740;-3.390;2023-04-25T06:28:39;101446.19;;;8.24;100.00
23261;BME280;11799;47.740;-3.390;2023-04-25T06:31:06;101450.25;;;8.30;100.00
23261;BME280;11799;47.740;-3.390;2023-04-25T06:33:31;101448.03;;;8.38;100.00
23261;BME280;11799;47.740;-3.390;2023-04-25T06:35:57;101451.34;;;8.42;100.00
23261;BME280;11799;47.740;-3.390;2023-04-25T06:38:25;101456.91;;;8.51;100.00
23261;BME280;11799;47.740;-3.390;2023-04-25T06:40:52;101470.38;;;8.61;100.00
23261;BME280;11799;47.740;-3.390;2023-04-25T06:43:18;101466.63;;;8.65;100.00
23261;BME280;11799;47.740;-3.390;2023-04-25T06:46:08;101463.59;;;8.71;100.00
23261;BME280;11799;47.740;-3.390;2023-04-25T06:48:40;101466.91;;;8.75;100.00
23261;BME280;11799;47.740;-3.390;2023-04-25T06:51:06;101470.13;;;8.80;100.00
23261;BME280;11799;47.740;-3.390;2023-04-25T06:53:33;101464.75;;;8.81;100.00
23261;BME280;11799;47.740;-3.390;2023-04-25T06:56:02;101465.31;;;8.86;100.00
23261;BME280;11799;47.740;-3.390;2023-04-25T06:58:49;101455.63;;;8.87;100.00
23261;BME280;11799;47.740;-3.390;2023-04-25T07:01:23;101456.31;;;8.90;100.00
23261;BME280;11799;47.740;-3.390;2023-04-25T07:03:48;101456.03;;;8.95;100.00
23261;BME280;11799;47.740;-3.390;2023-04-25T07:06:17;101456.59;;;9.00;100.00
23261;BME280;11799;47.740;-3.390;2023-04-25T07:08:42;101450.94;;;9.06;100.00
23261;BME280;11799;47.740;-3.390;2023-04-25T07:11:08;101450.94;;;9.06;100.00
23261;BME280;11799;47.740;-3.390;2023-04-25T07:13:35;101448.03;;;9.11;100.00
23261;BME280;11799;47.740;-3.390;2023-04-25T07:16:02;101451.03;;;9.19;100.00
23261;BME280;11799;47.740;-3.390;2023-04-25T07:18:30;101454.34;;;9.22;100.00
23261;BME280;11799;47.740;-3.390;2023-04-25T07:20:55;101453.75;;;9.32;100.00
23261;BME280;11799;47.740;-3.390;2023-04-25T07:23:22;101448.00;;;9.39;100.00
23261;BME280;11799;47.740;-3.390;2023-04-25T07:25:47;101454.00;;;9.55;100.00
23261;BME280;11799;47.740;-3.390;2023-04-25T07:28:17;101450.13;;;9.61;100.00
23261;BME280;11799;47.740;-3.390;2023-04-25T07:30:43;101457.28;;;9.86;100.00
23261;BME280;11799;47.740;-3.390;2023-04-25T07:33:08;101452.72;;;10.02;100.00
23261;BME280;11799;47.740;-3.390;2023-04-25T07:35:34;101445.97;;;10.25;100.00
23261;BME280;11799;47.740;-3.390;2023-04-25T07:38:01;101450.94;;;10.42;100.00
23261;BME280;11799;47.740;-3.390;2023-04-25T07:40:28;101452.97;;;10.64;100.00
23261;BME280;11799;47.740;-3.390;2023-04-25T07:42:58;101456.47;;;10.77;100.00
23261;BME280;11799;47.740;-3.390;2023-04-25T07:45:47;101461.56;;;10.80;100.00
23261;BME280;11799;47.740;-3.390;2023-04-25T07:48:18;101455.44;;;10.80;100.00
23261;BME280;11799;47.740;-3.390;2023-04-25T07:50:45;101465.69;;;10.84;100.00
23261;BME280;11799;47.740;-3.390;2023-04-25T07:53:11;101469.81;;;10.88;100.00
23261;BME280;11799;47.740;-3.390;2023-04-25T07:55:43;101473.94;;;10.93;100.00
23261;BME280;11799;47.740;-3.390;2023-04-25T07:58:16;101471.38;;;11.04;100.00
23261;BME280;11799;47.740;-3.390;2023-04-25T08:00:48;101472.22;;;11.17;100.00
23261;BME280;11799;47.740;-3.390;2023-04-25T08:03:43;101465.84;;;11.32;100.00
23261;BME280;11799;47.740;-3.390;2023-04-25T08:06:21;101470.19;;;11.33;100.00
23261;BME280;11799;47.740;-3.390;2023-04-25T08:09:03;101468.66;;;11.54;100.00
23261;BME280;11799;47.740;-3.390;2023-04-25T08:11:36;101448.50;;;11.77;100.00
23261;BME280;11799;47.740;-3.390;2023-04-25T08:14:01;101455.81;;;11.98;100.00
23261;BME280;11799;47.740;-3.390;2023-04-25T08:16:27;101452.41;;;12.08;100.00
23261;BME280;11799;47.740;-3.390;2023-04-25T08:18:53;101449.41;;;12.13;100.00
23261;BME280;11799;47.740;-3.390;2023-04-25T08:21:19;101444.13;;;12.24;100.00
23261;BME280;11799;47.740;-3.390;2023-04-25T08:23:45;101445.25;;;12.33;100.00
23261;BME280;11799;47.740;-3.390;2023-04-25T08:26:16;101447.91;;;12.33;100.00
23261;BME280;11799;47.740;-3.390;2023-04-25T08:28:42;101455.50;;;12.37;100.00
23261;BME280;11799;47.740;-3.390;2023-04-25T08:31:08;101451.78;;;12.40;100.00
23261;BME280;11799;47.740;-3.390;2023-04-25T08:33:43;101455.91;;;12.55;100.00
23261;BME280;11799;47.740;-3.390;2023-04-25T08:36:20;101449.78;;;12.54;100.00
23261;BME280;11799;47.740;-3.390;2023-04-25T08:38:45;101455.44;;;12.61;100.00
23261;BME280;11799;47.740;-3.390;2023-04-25T08:41:13;101455.72;;;12.69;100.00
23261;BME280;11799;47.740;-3.390;2023-04-25T08:43:42;101448.72;;;12.68;100.00
23261;BME280;11799;47.740;-3.390;2023-04-25T08:46:08;101443.31;;;12.70;100.00
23261;BME280;11799;47.740;-3.390;2023-04-25T08:49:01;101437.63;;;12.74;100.00
23261;BME280;11799;47.740;-3.390;2023-04-25T08:51:31;101435.09;;;12.84;100.00
23261;BME280;11799;47.740;-3.390;2023-04-25T08:54:10;101435.25;;;12.94;100.00
23261;BME280;11799;47.740;-3.390;2023-04-25T08:56:41;101432.97;;;13.00;100.00
23261;BME280;11799;47.740;-3.390;2023-04-25T08:59:10;101437.66;;;13.08;100.00
23261;BME280;11799;47.740;-3.390;2023-04-25T09:01:36;101434.28;;;13.06;100.00
23261;BME280;11799;47.740;-3.390;2023-04-25T09:04:02;101429.47;;;13.11;100.00
23261;BME280;11799;47.740;-3.390;2023-04-25T09:06:32;101435.00;;;13.08;100.00
23261;BME280;11799;47.740;-3.390;2023-04-25T09:09:02;101443.56;;;13.00;100.00
23261;BME280;11799;47.740;-3.390;2023-04-25T09:11:29;101445.97;;;13.03;100.00
23261;BME280;11799;47.740;-3.390;2023-04-25T09:14:14;101443.09;;;13.06;100.00
23261;BME280;11799;47.740;-3.390;2023-04-25T09:17:04;101435.13;;;12.95;100.00
23261;BME280;11799;47.740;-3.390;2023-04-25T09:20:12;101435.25;;;12.94;100.00
23261;BME280;11799;47.740;-3.390;2023-04-25T09:22:39;101428.50;;;13.01;100.00
23261;BME280;11799;47.740;-3.390;2023-04-25T09:25:12;101435.25;;;13.05;100.00
23261;BME280;11799;47.740;-3.390;2023-04-25T09:27:53;101442.13;;;13.07;100.00
23261;BME280;11799;47.740;-3.390;2023-04-25T09:30:31;101441.28;;;13.07;100.00
23261;BME280;11799;47.740;-3.390;2023-04-25T09:33:10;101437.31;;;13.01;100.00
23261;BME280;11799;47.740;-3.390;2023-04-25T09:35:39;101442.00;;;12.98;100.00
23261;BME280;11799;47.740;-3.390;2023-04-25T09:38:14;101456.59;;;13.03;100.00
23261;BME280;11799;47.740;-3.390;2023-04-25T09:41:07;101456.09;;;12.98;100.00
23261;BME280;11799;47.740;-3.390;2023-04-25T09:43:39;101450.91;;;13.08;100.00
23261;BME280;11799;47.740;-3.390;2023-04-25T09:46:09;101451.75;;;13.08;100.00
23261;BME280;11799;47.740;-3.390;2023-04-25T09:48:39;101449.72;;;13.12;100.00
23261;BME280;11799;47.740;-3.390;2023-04-25T09:51:12;101449.41;;;13.16;100.00
23261;BME280;11799;47.740;-3.390;2023-04-25T09:53:43;101442.38;;;13.15;100.00
23261;BME280;11799;47.740;-3.390;2023-04-25T09:56:35;101448.78;;;13.24;100.00
23261;BME280;11799;47.740;-3.390;2023-04-25T09:59:03;101448.66;;;13.26;100.00
23261;BME280;11799;47.740;-3.390;2023-04-25T10:01:33;101428.25;;;13.37;100.00
23261;BME280;11799;47.740;-3.390;2023-04-25T10:04:10;101421.72;;;13.52;100.00
23261;BME280;11799;47.740;-3.390;2023-04-25T10:06:45;101426.16;;;13.63;100.00
23261;BME280;11799;47.740;-3.390;2023-04-25T10:09:12;101424.59;;;13.61;100.00
23261;BME280;11799;47.740;-3.390;2023-04-25T10:11:39;101435.81;;;13.64;100.00
23261;BME280;11799;47.740;-3.390;2023-04-25T10:14:05;101438.25;;;13.56;100.00
23261;BME280;11799;47.740;-3.390;2023-04-25T10:16:31;101444.72;;;13.74;100.00
23261;BME280;11799;47.740;-3.390;2023-04-25T10:18:57;101444.75;;;13.63;100.00
23261;BME280;11799;47.740;-3.390;2023-04-25T10:21:24;101430.41;;;13.54;100.00
23261;BME280;11799;47.740;-3.390;2023-04-25T10:23:53;101431.34;;;13.65;100.00
23261;BME280;11799;47.740;-3.390;2023-04-25T10:26:19;101440.34;;;13.84;100.00
23261;BME280;11799;47.740;-3.390;2023-04-25T10:28:56;101460.94;;;13.92;100.00
23261;BME280;11799;47.740;-3.390;2023-04-25T10:31:24;101464.19;;;13.96;100.00
23261;BME280;11799;47.740;-3.390;2023-04-25T10:33:50;101456.44;;;14.04;100.00
23261;BME280;11799;47.740;-3.390;2023-04-25T10:36:20;101466.59;;;13.99;100.00
23261;BME280;11799;47.740;-3.390;2023-04-25T10:38:50;101466.50;;;13.89;100.00
23261;BME280;11799;47.740;-3.390;2023-04-25T10:41:18;101485.25;;;13.76;100.00
23261;BME280;11799;47.740;-3.390;2023-04-25T10:43:46;101484.53;;;13.74;100.00
23261;BME280;11799;47.740;-3.390;2023-04-25T10:48:50;101511.59;;;13.46;100.00
23261;BME280;11799;47.740;-3.390;2023-04-25T10:56:28;101507.59;;;13.29;100.00
23261;BME280;11799;47.740;-3.390;2023-04-25T10:59:23;101506.50;;;13.32;100.00
23261;BME280;11799;47.740;-3.390;2023-04-25T11:01:53;101499.53;;;13.19;100.00
23261;BME280;11799;47.740;-3.390;2023-04-25T11:04:28;101494.91;;;13.10;100.00
23261;BME280;11799;47.740;-3.390;2023-04-25T11:09:26;101495.19;;;13.30;100.00
23261;BME280;11799;47.740;-3.390;2023-04-25T11:11:56;101485.53;;;13.29;100.00
23261;BME280;11799;47.740;-3.390;2023-04-25T11:14:22;101491.19;;;13.35;100.00
23261;BME280;11799;47.740;-3.390;2023-04-25T11:16:53;101485.44;;;13.19;100.00
23261;BME280;11799;47.740;-3.390;2023-04-25T11:19:20;101479.63;;;13.14;100.00
23261;BME280;11799;47.740;-3.390;2023-04-25T11:21:46;101483.22;;;13.13;100.00
23261;BME280;11799;47.740;-3.390;2023-04-25T11:24:11;101481.09;;;13.18;100.00
23261;BME280;11799;47.740;-3.390;2023-04-25T11:26:37;101487.44;;;13.15;100.00
23261;BME280;11799;47.740;-3.390;2023-04-25T11:29:03;101485.75;;;13.03;100.00
23261;BME280;11799;47.740;-3.390;2023-04-25T11:31:29;101483.09;;;13.03;100.00
23261;BME280;11799;47.740;-3.390;2023-04-25T11:33:58;101476.47;;;12.98;100.00
23261;BME280;11799;47.740;-3.390;2023-04-25T11:36:24;101470.19;;;12.99;100.00
23261;BME280;11799;47.740;-3.390;2023-04-25T11:38:51;101458.50;;;13.01;100.00
23261;BME280;11799;47.740;-3.390;2023-04-25T11:41:18;101464.06;;;12.98;100.00
23261;BME280;11799;47.740;-3.390;2023-04-25T11:43:44;101460.19;;;12.91;100.00
23261;BME280;11799;47.740;-3.390;2023-04-25T11:46:10;101460.91;;;12.93;100.00
23261;BME280;11799;47.740;-3.390;2023-04-25T11:48:40;101447.78;;;13.03;100.00
23261;BME280;11799;47.740;-3.390;2023-04-25T11:51:06;101453.22;;;13.12;100.00
23261;BME280;11799;47.740;-3.390;2023-04-25T11:53:31;101450.44;;;13.14;100.00
23261;BME280;11799;47.740;-3.390;2023-04-25T11:55:57;101444.69;;;13.20;100.00
23261;BME280;11799;47.740;-3.390;2023-04-25T11:58:22;101453.97;;;13.26;100.00
23261;BME280;11799;47.740;-3.390;2023-04-25T12:00:48;101460.56;;;13.31;100.00
23261;BME280;11799;47.740;-3.390;2023-04-25T12:03:13;101452.16;;;13.26;100.00
23261;BME280;11799;47.740;-3.390;2023-04-25T12:05:39;101460.81;;;13.39;100.00
23261;BME280;11799;47.740;-3.390;2023-04-25T12:08:15;101455.00;;;13.57;100.00
23261;BME280;11799;47.740;-3.390;2023-04-25T12:10:44;101455.50;;;13.62;100.00
23261;BME280;11799;47.740;-3.390;2023-04-25T12:13:21;101450.31;;;13.60;100.00
23261;BME280;11799;47.740;-3.390;2023-04-25T12:15:47;101438.25;;;13.56;100.00
23261;BME280;11799;47.740;-3.390;2023-04-25T12:18:13;101447.88;;;13.68;100.00
23261;BME280;11799;47.740;-3.390;2023-04-25T12:20:39;101436.41;;;13.68;100.00
23261;BME280;11799;47.740;-3.390;2023-04-25T12:23:07;101447.53;;;13.62;100.00
23261;BME280;11799;47.740;-3.390;2023-04-25T12:25:44;101421.59;;;13.54;100.00
23261;BME280;11799;47.740;-3.390;2023-04-25T12:28:16;101426.03;;;13.65;100.00
23261;BME280;11799;47.740;-3.390;2023-04-25T12:31:01;101428.94;;;13.62;100.00
23261;BME280;11799;47.740;-3.390;2023-04-25T12:33:36;101442.94;;;13.64;100.00
23261;BME280;11799;47.740;-3.390;2023-04-25T12:36:04;101441.03;;;13.43;100.00
23261;BME280;11799;47.740;-3.390;2023-04-25T12:38:41;101437.06;;;13.38;100.00
23261;BME280;11799;47.740;-3.390;2023-04-25T12:41:08;101429.09;;;13.38;100.00
23261;BME280;11799;47.740;-3.390;2023-04-25T12:43:34;101433.09;;;13.32;100.00
23261;BME280;11799;47.740;-3.390;2023-04-25T12:46:00;101432.25;;;13.32;100.00
23261;BME280;11799;47.740;-3.390;2023-04-25T12:48:25;101431.44;;;13.20;100.00
23261;BME280;11799;47.740;-3.390;2023-04-25T12:50:51;101440.59;;;13.16;100.00
23261;BME280;11799;47.740;-3.390;2023-04-25T12:53:21;101435.16;;;13.17;100.00
23261;BME280;11799;47.740;-3.390;2023-04-25T12:55:47;101444.06;;;13.05;100.00
23261;BME280;11799;47.740;-3.390;2023-04-25T12:58:18;101439.81;;;12.92;100.00
23261;BME280;11799;47.740;-3.390;2023-04-25T13:00:45;101444.13;;;12.81;100.00